Time;durP1;ratioP1;P1;durP2;ratioP2;P2;SDS_P1;SDS_P2;PMS_P1;PMS_P2;Temp;Humidity;BMP_temperature;BMP_pressure;BME280_temperature;BME280_humidity;BME280_pressure;Samples;Min_cycle;Max_cycle;Signal;HPM_P1;HPM_P2
2022/01/04 00:02:20;;;;;;;;;5.75;5.25;;;;;;;;5050047;28;45905;-76
2022/01/04 00:04:46;;;;;;;;;7.67;6.00;;;;;;;;5033205;28;45415;-75
2022/01/04 00:07:11;;;;;;;;;6.00;6.00;;;;;;;;5051969;28;45486;-75
2022/01/04 00:09:40;;;;;;;;;9.00;6.33;;;;;;;;5032397;28;46185;-76
2022/01/04 00:14:50;;;;;;;;;6.00;6.00;;;;;;;;5050676;28;45896;-74
2022/01/04 00:17:16;;;;;;;;;9.00;8.50;;;;;;;;5032238;28;45610;-70
2022/01/04 00:19:41;;;;;;;;;7.00;7.00;;;;;;;;5030571;28;45559;-70
2022/01/04 00:22:08;;;;;;;;;6.50;5.75;;;;;;;;5050839;28;45667;-71
2022/01/04 00:24:33;;;;;;;;;11.50;8.75;;;;;;;;5032004;28;45826;-72
2022/01/04 00:26:58;;;;;;;;;11.00;7.75;;;;;;;;5050623;28;45474;-71
2022/01/04 00:29:23;;;;;;;;;12.00;11.00;;;;;;;;5050370;28;45572;-72
2022/01/04 00:31:48;;;;;;;;;9.00;8.50;;;;;;;;5050143;28;46816;-74
2022/01/04 00:34:14;;;;;;;;;11.50;8.00;;;;;;;;5032851;28;45682;-74
2022/01/04 00:36:39;;;;;;;;;10.50;6.00;;;;;;;;5050602;28;45713;-73
2022/01/04 00:39:04;;;;;;;;;8.75;8.00;;;;;;;;5050845;28;45509;-73
2022/01/04 00:41:29;;;;;;;;;8.00;8.00;;;;;;;;5050236;28;46162;-72
2022/01/04 00:43:55;;;;;;;;;11.75;10.00;;;;;;;;5031748;28;45998;-74
2022/01/04 00:46:20;;;;;;;;;11.00;11.00;;;;;;;;5032499;28;45543;-76
2022/01/04 00:51:29;;;;;;;;;6.75;6.00;;;;;;;;5050744;28;46030;-73
2022/01/04 00:53:55;;;;;;;;;8.00;6.75;;;;;;;;5050215;28;45404;-74
2022/01/04 00:56:20;;;;;;;;;8.25;8.25;;;;;;;;5051620;28;45413;-75
2022/01/04 00:58:45;;;;;;;;;5.00;5.00;;;;;;;;5050927;28;45488;-74
2022/01/04 01:01:10;;;;;;;;;7.25;7.25;;;;;;;;5051021;28;45535;-74
2022/01/04 01:03:36;;;;;;;;;7.00;6.00;;;;;;;;5030155;28;46351;-75
2022/01/04 01:06:01;;;;;;;;;6.50;6.50;;;;;;;;5049451;28;45727;-76
2022/01/04 01:08:26;;;;;;;;;3.00;3.00;;;;;;;;5031731;28;45375;-78
2022/01/04 01:10:51;;;;;;;;;3.00;3.00;;;;;;;;5050635;28;46343;-76
2022/01/04 01:13:17;;;;;;;;;2.67;2.67;;;;;;;;5049973;28;45396;-76
2022/01/04 01:15:45;;;;;;;;;1.33;1.33;;;;;;;;5051563;28;45960;-80
2022/01/04 01:18:11;;;;;;;;;1.33;1.33;;;;;;;;5032935;28;45925;-77
2022/01/04 01:20:36;;;;;;;;;2.00;2.00;;;;;;;;5050855;28;45541;-78
2022/01/04 01:23:01;;;;;;;;;2.00;2.00;;;;;;;;5031199;28;45957;-78
2022/01/04 01:25:27;;;;;;;;;1.00;1.00;;;;;;;;5032137;28;45407;-78
2022/01/04 01:27:52;;;;;;;;;3.00;1.67;;;;;;;;5049730;28;45690;-79
2022/01/04 01:30:17;;;;;;;;;3.00;1.00;;;;;;;;5049288;28;46904;-79
2022/01/04 01:32:43;;;;;;;;;0.00;0.00;;;;;;;;5049757;28;45772;-79
2022/01/04 01:35:08;;;;;;;;;0.00;0.00;;;;;;;;5032608;28;45636;-79
2022/01/04 01:37:34;;;;;;;;;1.00;1.00;;;;;;;;5050727;28;45508;-78
2022/01/04 01:39:59;;;;;;;;;0.00;0.00;;;;;;;;5031200;28;48380;-79
2022/01/04 01:42:24;;;;;;;;;1.00;1.00;;;;;;;;5030908;28;47026;-76
2022/01/04 01:44:51;;;;;;;;;1.00;1.00;;;;;;;;5032120;28;45515;-75
2022/01/04 01:47:16;;;;;;;;;0.33;0.33;;;;;;;;5031487;28;45419;-77
2022/01/04 01:49:41;;;;;;;;;1.00;1.00;;;;;;;;5050280;28;45208;-76
2022/01/04 01:52:06;;;;;;;;;2.00;2.00;;;;;;;;5050717;28;45755;-77
2022/01/04 01:54:32;;;;;;;;;1.00;1.00;;;;;;;;5050241;28;45521;-74
2022/01/04 01:56:57;;;;;;;;;0.00;0.00;;;;;;;;5050001;28;45322;-74
2022/01/04 01:59:22;;;;;;;;;0.00;0.00;;;;;;;;5031394;28;47922;-75
2022/01/04 02:01:47;;;;;;;;;0.00;0.00;;;;;;;;5051731;28;46114;-74
2022/01/04 02:04:12;;;;;;;;;0.00;0.00;;;;;;;;5053554;28;45604;-73
2022/01/04 02:06:38;;;;;;;;;0.00;0.00;;;;;;;;5036882;28;45526;-74
2022/01/04 02:09:03;;;;;;;;;0.00;0.00;;;;;;;;5042464;28;47601;-74
2022/01/04 02:11:29;;;;;;;;;0.00;0.00;;;;;;;;5059902;28;45696;-72
2022/01/04 02:13:58;;;;;;;;;0.00;0.00;;;;;;;;5037080;28;45488;-75
2022/01/04 02:16:24;;;;;;;;;1.00;1.00;;;;;;;;5053643;28;45740;-73
2022/01/04 02:18:50;;;;;;;;;2.25;2.25;;;;;;;;5034821;28;47257;-73
2022/01/04 02:21:15;;;;;;;;;3.00;3.00;;;;;;;;5034774;28;45661;-73
2022/01/04 02:23:40;;;;;;;;;4.00;3.00;;;;;;;;5034913;28;45537;-73
2022/01/04 02:26:05;;;;;;;;;3.00;3.00;;;;;;;;5053283;28;45553;-72
2022/01/04 02:28:31;;;;;;;;;3.33;3.33;;;;;;;;5053608;28;45688;-72
2022/01/04 02:30:57;;;;;;;;;1.00;1.00;;;;;;;;5050736;28;45765;-73
2022/01/04 02:33:22;;;;;;;;;0.00;0.00;;;;;;;;5052906;28;45493;-74
2022/01/04 02:35:47;;;;;;;;;0.00;0.00;;;;;;;;5034221;28;45809;-73
2022/01/04 02:38:13;;;;;;;;;0.00;0.00;;;;;;;;5034536;28;48566;-73
2022/01/04 02:40:38;;;;;;;;;0.00;0.00;;;;;;;;5051462;28;45544;-74
2022/01/04 02:43:03;;;;;;;;;0.00;0.00;;;;;;;;5052067;28;46012;-73
2022/01/04 02:45:29;;;;;;;;;0.00;0.00;;;;;;;;5033076;28;45467;-74
2022/01/04 02:47:54;;;;;;;;;0.00;0.00;;;;;;;;5048302;28;46350;-73
2022/01/04 02:50:19;;;;;;;;;0.00;0.00;;;;;;;;5052107;28;45783;-74
2022/01/04 02:52:45;;;;;;;;;0.00;0.00;;;;;;;;5033618;28;45535;-73
2022/01/04 02:55:11;;;;;;;;;0.00;0.00;;;;;;;;5034923;28;45489;-73
2022/01/04 02:57:37;;;;;;;;;0.00;0.00;;;;;;;;5052102;28;45800;-72
2022/01/04 03:00:04;;;;;;;;;0.00;0.00;;;;;;;;5034065;28;45812;-73
2022/01/04 03:02:29;;;;;;;;;0.00;0.00;;;;;;;;5034416;28;45774;-74
2022/01/04 03:04:55;;;;;;;;;0.00;0.00;;;;;;;;5051840;28;45663;-72
2022/01/04 03:07:20;;;;;;;;;0.00;0.00;;;;;;;;5034366;28;48523;-73
2022/01/04 03:09:45;;;;;;;;;0.00;0.00;;;;;;;;5034357;28;45882;-72
2022/01/04 03:12:10;;;;;;;;;0.00;0.00;;;;;;;;5049866;28;45442;-73
2022/01/04 03:14:36;;;;;;;;;0.00;0.00;;;;;;;;5049440;28;45949;-73
2022/01/04 03:17:01;;;;;;;;;0.00;0.00;;;;;;;;5032752;28;48491;-74
2022/01/04 03:19:26;;;;;;;;;0.00;0.00;;;;;;;;5034608;28;45885;-73
2022/01/04 03:21:52;;;;;;;;;0.67;0.00;;;;;;;;5033310;28;46083;-74
2022/01/04 03:24:17;;;;;;;;;0.00;0.00;;;;;;;;5051482;28;45441;-74
2022/01/04 03:26:42;;;;;;;;;0.00;0.00;;;;;;;;5051929;28;46479;-75
2022/01/04 03:29:08;;;;;;;;;0.00;0.00;;;;;;;;5051884;28;45933;-74
2022/01/04 03:31:34;;;;;;;;;0.00;0.00;;;;;;;;5033575;28;45648;-74
2022/01/04 03:33:59;;;;;;;;;0.00;0.00;;;;;;;;5033652;28;45623;-74
2022/01/04 03:36:25;;;;;;;;;0.00;0.00;;;;;;;;5033594;28;47635;-74
2022/01/04 03:38:54;;;;;;;;;0.33;0.33;;;;;;;;5051793;28;45432;-73
2022/01/04 03:41:20;;;;;;;;;0.00;0.00;;;;;;;;5032938;28;45585;-72
2022/01/04 03:43:45;;;;;;;;;0.00;0.00;;;;;;;;5033679;28;45498;-72
2022/01/04 03:46:11;;;;;;;;;0.00;0.00;;;;;;;;5032855;28;51063;-72
2022/01/04 03:48:37;;;;;;;;;0.00;0.00;;;;;;;;5051265;28;45527;-72
2022/01/04 03:51:03;;;;;;;;;1.00;1.00;;;;;;;;5032623;28;45410;-71
2022/01/04 03:53:28;;;;;;;;;0.00;0.00;;;;;;;;5051697;28;45568;-71
2022/01/04 03:55:54;;;;;;;;;0.00;0.00;;;;;;;;5033602;28;47560;-71
2022/01/04 03:58:19;;;;;;;;;0.00;0.00;;;;;;;;5052296;28;45822;-72
2022/01/04 04:00:44;;;;;;;;;0.00;0.00;;;;;;;;5051558;28;45556;-73
2022/01/04 04:03:09;;;;;;;;;0.00;0.00;;;;;;;;5051106;28;45504;-71
2022/01/04 04:05:34;;;;;;;;;0.00;0.00;;;;;;;;5032844;28;48035;-72
2022/01/04 04:08:00;;;;;;;;;0.00;0.00;;;;;;;;5033490;28;45758;-73
2022/01/04 04:10:25;;;;;;;;;0.00;0.00;;;;;;;;5034179;28;45673;-73
2022/01/04 04:12:50;;;;;;;;;0.00;0.00;;;;;;;;5050800;28;45552;-73
2022/01/04 04:15:15;;;;;;;;;0.00;0.00;;;;;;;;5033175;28;48510;-74
2022/01/04 04:17:41;;;;;;;;;1.33;0.00;;;;;;;;5032680;28;45614;-75
2022/01/04 04:20:06;;;;;;;;;1.00;0.00;;;;;;;;5033155;28;45905;-74
2022/01/04 04:22:31;;;;;;;;;0.00;0.00;;;;;;;;5051422;28;45747;-74
2022/01/04 04:24:57;;;;;;;;;0.00;0.00;;;;;;;;5050959;28;45759;-73
2022/01/04 04:27:22;;;;;;;;;0.00;0.00;;;;;;;;5031656;28;45615;-75
2022/01/04 04:29:47;;;;;;;;;0.00;0.00;;;;;;;;5043693;28;45436;-74
2022/01/04 04:32:12;;;;;;;;;0.00;0.00;;;;;;;;5050574;28;45620;-75
2022/01/04 04:34:38;;;;;;;;;0.00;0.00;;;;;;;;5033178;28;48630;-74
2022/01/04 04:37:03;;;;;;;;;0.00;0.00;;;;;;;;5037375;28;45597;-74
2022/01/04 04:39:28;;;;;;;;;0.00;0.00;;;;;;;;5056644;28;45867;-74
2022/01/04 04:41:54;;;;;;;;;0.00;0.00;;;;;;;;5055806;28;45774;-73
2022/01/04 04:44:19;;;;;;;;;0.00;0.00;;;;;;;;5051250;28;46197;-73
2022/01/04 04:46:44;;;;;;;;;0.00;0.00;;;;;;;;5033198;28;45739;-74
2022/01/04 04:49:10;;;;;;;;;0.00;0.00;;;;;;;;5051111;28;45432;-73
2022/01/04 04:51:35;;;;;;;;;0.00;0.00;;;;;;;;5032935;28;45438;-73
2022/01/04 04:54:00;;;;;;;;;0.00;0.00;;;;;;;;5066303;27;49106;-73
2022/01/04 04:56:26;;;;;;;;;0.00;0.00;;;;;;;;5049739;28;45850;-74
2022/01/04 04:58:51;;;;;;;;;0.00;0.00;;;;;;;;5050692;28;45590;-74
2022/01/04 05:01:16;;;;;;;;;0.00;0.00;;;;;;;;5050910;28;45396;-74
2022/01/04 05:03:42;;;;;;;;;0.00;0.00;;;;;;;;5050483;28;45623;-72
2022/01/04 05:06:07;;;;;;;;;1.00;0.00;;;;;;;;5050640;28;45472;-73
2022/01/04 05:08:32;;;;;;;;;0.00;0.00;;;;;;;;5050644;28;45555;-73
2022/01/04 05:10:57;;;;;;;;;0.00;0.00;;;;;;;;5047947;28;45694;-74
2022/01/04 05:13:23;;;;;;;;;0.00;0.00;;;;;;;;5050349;28;45675;-74
2022/01/04 05:15:48;;;;;;;;;0.00;0.00;;;;;;;;5049151;28;45473;-74
2022/01/04 05:18:13;;;;;;;;;0.00;0.00;;;;;;;;5050152;28;45370;-74
2022/01/04 05:20:38;;;;;;;;;0.00;0.00;;;;;;;;5044253;28;45508;-73
2022/01/04 05:23:04;;;;;;;;;0.00;0.00;;;;;;;;5031979;28;47291;-73
2022/01/04 05:25:29;;;;;;;;;0.00;0.00;;;;;;;;5030402;28;45455;-76
2022/01/04 05:27:54;;;;;;;;;0.00;0.00;;;;;;;;5042653;28;45560;-75
2022/01/04 05:30:19;;;;;;;;;0.00;0.00;;;;;;;;5047736;28;46212;-74
2022/01/04 05:32:44;;;;;;;;;0.00;0.00;;;;;;;;5031669;28;48750;-74
2022/01/04 05:35:10;;;;;;;;;0.00;0.00;;;;;;;;5030164;28;45781;-74
2022/01/04 05:37:35;;;;;;;;;0.67;0.00;;;;;;;;5046180;28;45688;-74
2022/01/04 05:40:00;;;;;;;;;0.00;0.00;;;;;;;;5041466;28;45544;-73
2022/01/04 05:42:25;;;;;;;;;0.00;0.00;;;;;;;;5031046;28;48512;-73
2022/01/04 05:44:51;;;;;;;;;0.00;0.00;;;;;;;;5030867;28;45804;-73
2022/01/04 05:47:16;;;;;;;;;0.00;0.00;;;;;;;;5048373;28;45568;-73
2022/01/04 05:49:41;;;;;;;;;0.00;0.00;;;;;;;;5027523;28;45495;-73
2022/01/04 05:52:06;;;;;;;;;0.00;0.00;;;;;;;;5029923;28;47377;-71
2022/01/04 05:54:32;;;;;;;;;0.00;0.00;;;;;;;;5026542;28;45899;-71
2022/01/04 05:56:57;;;;;;;;;0.00;0.00;;;;;;;;5047139;28;45973;-72
2022/01/04 05:59:22;;;;;;;;;0.00;0.00;;;;;;;;5040144;28;45842;-72
2022/01/04 06:01:48;;;;;;;;;0.00;0.00;;;;;;;;5043257;28;45655;-73
2022/01/04 06:04:13;;;;;;;;;0.67;0.00;;;;;;;;5031577;28;45481;-71
2022/01/04 06:06:41;;;;;;;;;0.00;0.00;;;;;;;;5048119;28;45430;-72
2022/01/04 06:09:08;;;;;;;;;0.00;0.00;;;;;;;;5045395;28;45617;-71
2022/01/04 06:17:12;;;;;;;;;0.00;0.00;;;;;;;;5034843;28;45457;-71
2022/01/04 06:19:38;;;;;;;;;0.00;0.00;;;;;;;;5032142;28;45477;-74
2022/01/04 06:22:04;;;;;;;;;0.00;0.00;;;;;;;;5049980;28;45726;-72
2022/01/04 06:24:29;;;;;;;;;0.33;0.33;;;;;;;;5049408;28;45740;-73
2022/01/04 06:26:54;;;;;;;;;0.00;0.00;;;;;;;;5050064;28;45714;-71
2022/01/04 06:29:22;;;;;;;;;0.00;0.00;;;;;;;;5049815;28;45496;-72
2022/01/04 06:31:48;;;;;;;;;0.00;0.00;;;;;;;;5031415;28;45791;-72
2022/01/04 06:34:14;;;;;;;;;0.00;0.00;;;;;;;;5044723;28;46123;-74
2022/01/04 06:36:39;;;;;;;;;0.00;0.00;;;;;;;;5044841;28;46225;-73
2022/01/04 06:39:05;;;;;;;;;1.00;0.00;;;;;;;;5045291;28;45723;-73
2022/01/04 06:41:30;;;;;;;;;0.00;0.00;;;;;;;;5047612;28;45524;-75
2022/01/04 06:43:56;;;;;;;;;1.00;1.00;;;;;;;;5049906;28;45422;-75
2022/01/04 06:46:23;;;;;;;;;1.00;0.67;;;;;;;;5050630;28;45688;-73
2022/01/04 06:48:48;;;;;;;;;1.00;1.00;;;;;;;;5030615;28;46228;-72
2022/01/04 06:51:13;;;;;;;;;1.00;1.00;;;;;;;;5029574;28;47585;-73
2022/01/04 06:53:38;;;;;;;;;2.00;2.00;;;;;;;;5050798;28;45720;-74
2022/01/04 06:56:04;;;;;;;;;1.50;1.00;;;;;;;;5034796;28;45496;-72
2022/01/04 06:58:30;;;;;;;;;3.00;3.00;;;;;;;;5053711;28;45722;-72
2022/01/04 07:00:55;;;;;;;;;2.00;2.00;;;;;;;;5051731;28;45869;-71
2022/01/04 07:03:20;;;;;;;;;2.33;2.00;;;;;;;;5051763;28;45611;-74
2022/01/04 07:05:46;;;;;;;;;3.33;1.33;;;;;;;;5055475;28;45667;-74
2022/01/04 07:08:11;;;;;;;;;2.00;2.00;;;;;;;;5041931;28;45493;-73
2022/01/04 07:10:36;;;;;;;;;2.00;2.00;;;;;;;;5039111;28;47624;-73
2022/01/04 07:13:01;;;;;;;;;3.00;3.00;;;;;;;;5054507;28;45586;-72
2022/01/04 07:15:27;;;;;;;;;2.00;2.00;;;;;;;;5052582;28;45959;-72
2022/01/04 07:17:52;;;;;;;;;3.00;3.00;;;;;;;;5052841;28;45476;-72
2022/01/04 07:20:17;;;;;;;;;4.00;4.00;;;;;;;;5052985;28;45632;-73
2022/01/04 07:22:42;;;;;;;;;4.00;4.00;;;;;;;;5034313;28;45751;-71
2022/01/04 07:25:08;;;;;;;;;2.50;2.00;;;;;;;;5053221;28;45378;-72
2022/01/04 07:27:33;;;;;;;;;2.25;2.25;;;;;;;;5034292;28;45937;-72
2022/01/04 07:29:59;;;;;;;;;1.00;1.00;;;;;;;;5034019;28;47654;-72
2022/01/04 07:32:24;;;;;;;;;1.00;1.00;;;;;;;;5034206;28;45494;-72
2022/01/04 07:34:49;;;;;;;;;1.00;1.00;;;;;;;;5052408;28;45410;-71
2022/01/04 07:37:15;;;;;;;;;3.00;2.00;;;;;;;;5052910;28;45456;-72
2022/01/04 07:39:40;;;;;;;;;1.00;1.00;;;;;;;;5052917;28;47146;-73
2022/01/04 07:42:06;;;;;;;;;1.50;1.50;;;;;;;;5052464;28;45706;-74
2022/01/04 07:44:31;;;;;;;;;1.67;1.67;;;;;;;;5032818;28;45734;-74
2022/01/04 07:46:56;;;;;;;;;2.75;2.75;;;;;;;;5049981;28;46184;-74
2022/01/04 07:49:21;;;;;;;;;2.50;2.50;;;;;;;;5051570;28;46324;-74
2022/01/04 07:51:47;;;;;;;;;2.00;2.00;;;;;;;;5052124;28;45567;-72
2022/01/04 07:54:12;;;;;;;;;1.00;1.00;;;;;;;;5050656;28;45581;-72
2022/01/04 07:56:38;;;;;;;;;2.50;1.00;;;;;;;;5051891;28;45441;-72
2022/01/04 07:59:04;;;;;;;;;2.00;2.00;;;;;;;;5032174;28;47479;-72
2022/01/04 08:01:29;;;;;;;;;3.50;2.50;;;;;;;;5052360;28;45706;-73
2022/01/04 08:03:55;;;;;;;;;1.00;1.00;;;;;;;;5052099;28;45679;-71
2022/01/04 08:06:20;;;;;;;;;1.00;1.00;;;;;;;;5034063;28;45516;-71
2022/01/04 08:08:45;;;;;;;;;1.00;1.00;;;;;;;;5048023;28;45860;-71
2022/01/04 08:11:11;;;;;;;;;2.50;1.75;;;;;;;;5037099;28;45620;-72
2022/01/04 08:13:36;;;;;;;;;2.25;2.00;;;;;;;;5031144;28;45520;-72
2022/01/04 08:16:02;;;;;;;;;4.00;4.00;;;;;;;;5050838;28;45406;-71
2022/01/04 08:18:27;;;;;;;;;7.25;5.75;;;;;;;;5031790;28;47654;-72
2022/01/04 08:20:56;;;;;;;;;6.25;6.25;;;;;;;;5050925;28;45549;-72
2022/01/04 08:23:22;;;;;;;;;9.25;8.25;;;;;;;;5049228;28;45754;-73
2022/01/04 08:25:47;;;;;;;;;4.00;2.75;;;;;;;;5033754;28;45479;-71
2022/01/04 08:28:12;;;;;;;;;5.50;5.50;;;;;;;;5031661;28;50690;-72
2022/01/04 08:30:37;;;;;;;;;6.75;6.00;;;;;;;;5033718;28;45740;-73
2022/01/04 08:33:03;;;;;;;;;8.25;8.25;;;;;;;;5051777;28;45442;-72
2022/01/04 08:35:28;;;;;;;;;10.00;5.00;;;;;;;;5051986;28;45428;-72
2022/01/04 08:37:53;;;;;;;;;9.75;8.50;;;;;;;;5051829;28;45909;-72
2022/01/04 08:40:19;;;;;;;;;10.50;10.00;;;;;;;;5033882;28;45438;-71
2022/01/04 08:42:44;;;;;;;;;6.50;6.50;;;;;;;;5033683;28;45567;-72
2022/01/04 08:45:10;;;;;;;;;9.25;8.75;;;;;;;;5032914;28;45740;-71
2022/01/04 08:47:35;;;;;;;;;6.25;5.75;;;;;;;;5051328;28;45466;-72
2022/01/04 08:50:01;;;;;;;;;5.75;5.75;;;;;;;;5033260;28;45505;-71
2022/01/04 08:52:27;;;;;;;;;6.00;6.00;;;;;;;;5052112;28;45672;-71
2022/01/04 08:54:52;;;;;;;;;4.00;4.00;;;;;;;;5051460;28;45454;-71
2022/01/04 08:57:17;;;;;;;;;5.00;3.75;;;;;;;;5051375;28;46448;-72
2022/01/04 08:59:43;;;;;;;;;4.00;4.00;;;;;;;;5051513;28;46034;-72
2022/01/04 09:02:08;;;;;;;;;4.25;3.00;;;;;;;;5049617;28;45502;-72
2022/01/04 09:04:33;;;;;;;;;7.75;4.50;;;;;;;;5034014;28;45444;-72
2022/01/04 09:06:59;;;;;;;;;2.00;2.00;;;;;;;;5032868;28;47661;-71
2022/01/04 09:09:24;;;;;;;;;1.75;1.75;;;;;;;;5051011;28;45508;-72
2022/01/04 09:11:50;;;;;;;;;2.00;2.00;;;;;;;;5034339;28;45644;-70
2022/01/04 09:19:27;;;;;;;;;2.50;2.00;;;;;;;;5051404;28;45489;-72
2022/01/04 09:21:53;;;;;;;;;3.00;3.00;;;;;;;;5051352;28;45508;-72
2022/01/04 09:24:19;;;;;;;;;2.00;2.00;;;;;;;;5032300;28;45647;-73
2022/01/04 09:26:44;;;;;;;;;3.00;3.00;;;;;;;;5050961;28;46011;-72
2022/01/04 09:29:09;;;;;;;;;2.50;2.50;;;;;;;;5050952;28;45478;-72
2022/01/04 09:31:35;;;;;;;;;3.75;3.00;;;;;;;;5031778;28;45814;-72
2022/01/04 09:34:01;;;;;;;;;2.00;2.00;;;;;;;;5050939;28;45854;-72
2022/01/04 09:36:28;;;;;;;;;1.00;1.00;;;;;;;;5012467;28;47368;-72
2022/01/04 09:38:53;;;;;;;;;2.25;2.25;;;;;;;;5042717;28;45390;-73
2022/01/04 09:41:20;;;;;;;;;3.00;3.00;;;;;;;;5057374;28;45715;-74
2022/01/04 09:43:47;;;;;;;;;4.25;3.25;;;;;;;;5038005;28;45441;-71
2022/01/04 09:46:12;;;;;;;;;2.00;2.00;;;;;;;;5036906;28;47758;-71
2022/01/04 09:48:37;;;;;;;;;3.50;3.50;;;;;;;;5066449;27;46093;-73
2022/01/04 09:51:03;;;;;;;;;3.00;2.00;;;;;;;;5032664;28;45889;-72
2022/01/04 09:53:28;;;;;;;;;4.50;3.00;;;;;;;;5033170;28;45804;-73
2022/01/04 09:55:56;;;;;;;;;5.00;3.75;;;;;;;;5033410;28;47900;-73
2022/01/04 09:58:22;;;;;;;;;2.25;2.25;;;;;;;;5051871;28;45405;-73
2022/01/04 10:00:48;;;;;;;;;2.00;2.00;;;;;;;;5051248;28;45477;-75
2022/01/04 10:03:15;;;;;;;;;4.00;3.00;;;;;;;;5032942;28;45426;-74
2022/01/04 10:05:40;;;;;;;;;3.75;3.75;;;;;;;;5033026;28;47703;-74
2022/01/04 10:08:07;;;;;;;;;4.50;4.50;;;;;;;;5050483;28;45506;-73
2022/01/04 10:10:33;;;;;;;;;4.50;3.50;;;;;;;;5033810;28;45478;-72
2022/01/04 10:13:00;;;;;;;;;4.75;3.25;;;;;;;;5049470;28;45395;-72
2022/01/04 10:15:29;;;;;;;;;3.50;3.25;;;;;;;;5032717;28;47458;-74
2022/01/04 10:17:55;;;;;;;;;4.00;2.50;;;;;;;;5050941;28;47002;-73
2022/01/04 10:20:20;;;;;;;;;4.00;4.00;;;;;;;;5032627;28;45508;-74
2022/01/04 10:22:45;;;;;;;;;6.00;4.00;;;;;;;;5054127;28;45390;-73
2022/01/04 10:25:13;;;;;;;;;9.25;8.00;;;;;;;;5037025;28;48672;-75
2022/01/04 10:27:38;;;;;;;;;9.25;7.75;;;;;;;;5054189;28;46121;-75
2022/01/04 10:30:09;;;;;;;;;3.50;3.50;;;;;;;;5054546;28;45534;-74
2022/01/04 10:32:44;;;;;;;;;3.50;3.50;;;;;;;;5036736;28;45544;-72
2022/01/04 10:35:09;;;;;;;;;3.50;3.50;;;;;;;;5039322;28;45858;-72
2022/01/04 10:37:40;;;;;;;;;3.00;3.00;;;;;;;;5055094;28;45468;-73
2022/01/04 10:40:06;;;;;;;;;3.75;3.00;;;;;;;;5036241;28;45551;-72
2022/01/04 10:42:31;;;;;;;;;2.00;2.00;;;;;;;;5036268;28;45621;-74
2022/01/04 10:44:57;;;;;;;;;4.00;3.00;;;;;;;;5035887;28;47833;-73
2022/01/04 10:47:26;;;;;;;;;3.00;3.00;;;;;;;;5036451;28;45778;-74
2022/01/04 10:49:51;;;;;;;;;2.00;2.00;;;;;;;;5035755;28;45704;-74
2022/01/04 10:52:22;;;;;;;;;1.00;1.00;;;;;;;;5036901;28;45571;-74
2022/01/04 10:55:07;;;;;;;;;1.50;1.50;;;;;;;;5035854;28;47613;-74
2022/01/04 10:57:34;;;;;;;;;3.00;2.00;;;;;;;;5054101;28;45492;-74
2022/01/04 11:00:11;;;;;;;;;2.00;1.00;;;;;;;;5054280;28;45678;-72
2022/01/04 11:02:37;;;;;;;;;2.00;2.00;;;;;;;;5054328;28;45592;-74
2022/01/04 11:05:15;;;;;;;;;2.00;2.00;;;;;;;;5054192;28;46416;-74
2022/01/04 11:07:56;;;;;;;;;3.00;2.00;;;;;;;;5032838;28;46467;-73
2022/01/04 11:10:21;;;;;;;;;2.00;2.00;;;;;;;;5055140;28;45418;-74
2022/01/04 11:12:47;;;;;;;;;4.25;2.00;;;;;;;;5034691;28;45787;-76
2022/01/04 11:15:13;;;;;;;;;3.75;3.75;;;;;;;;5049422;28;45855;-74
2022/01/04 11:17:38;;;;;;;;;3.75;3.75;;;;;;;;5034408;28;48635;-74
2022/01/04 11:20:04;;;;;;;;;2.00;2.00;;;;;;;;5047724;28;45560;-74
2022/01/04 11:22:29;;;;;;;;;3.00;3.00;;;;;;;;5036094;28;45746;-75
2022/01/04 11:24:55;;;;;;;;;3.00;3.00;;;;;;;;5052797;28;46228;-75
2022/01/04 11:27:20;;;;;;;;;3.50;1.75;;;;;;;;5053233;28;45656;-74
2022/01/04 11:29:47;;;;;;;;;1.75;1.75;;;;;;;;5053439;28;45805;-75
2022/01/04 11:32:16;;;;;;;;;3.00;3.00;;;;;;;;5032248;28;45638;-74
2022/01/04 11:34:50;;;;;;;;;6.75;5.50;;;;;;;;5029444;28;47366;-75
2022/01/04 11:37:16;;;;;;;;;4.00;4.00;;;;;;;;5050140;28;45368;-72
2022/01/04 11:39:42;;;;;;;;;1.00;1.00;;;;;;;;5024730;28;45788;-70
2022/01/04 11:42:13;;;;;;;;;2.00;2.00;;;;;;;;5046911;28;45614;-72
2022/01/04 11:44:48;;;;;;;;;5.00;2.00;;;;;;;;5034300;28;48502;-75
2022/01/04 11:47:15;;;;;;;;;2.75;2.25;;;;;;;;5044819;28;45558;-72
2022/01/04 11:50:00;;;;;;;;;1.50;1.50;;;;;;;;5041418;28;45727;-74
2022/01/04 11:52:38;;;;;;;;;1.50;1.00;;;;;;;;5030481;28;45640;-74
2022/01/04 11:55:16;;;;;;;;;3.00;3.00;;;;;;;;5031554;28;48949;-73
2022/01/04 11:57:41;;;;;;;;;0.00;0.00;;;;;;;;5047658;28;45658;-73
2022/01/04 12:00:09;;;;;;;;;18.00;14.25;;;;;;;;5047876;28;45825;-73
2022/01/04 12:02:40;;;;;;;;;3.00;2.50;;;;;;;;5047619;28;45604;-73
2022/01/04 12:05:15;;;;;;;;;3.00;2.00;;;;;;;;5035432;28;46351;-72
2022/01/04 12:08:07;;;;;;;;;2.67;1.00;;;;;;;;5030980;28;45877;-72
2022/01/04 12:10:33;;;;;;;;;1.00;1.00;;;;;;;;5012511;28;45418;-72
2022/01/04 12:12:59;;;;;;;;;2.00;1.00;;;;;;;;5053642;28;45634;-72
2022/01/04 12:15:33;;;;;;;;;1.00;1.00;;;;;;;;5045676;28;46506;-72
2022/01/04 12:17:59;;;;;;;;;1.00;1.00;;;;;;;;5038928;28;47017;-73
2022/01/04 12:20:43;;;;;;;;;3.00;1.00;;;;;;;;5054913;28;45512;-72
2022/01/04 12:26:18;;;;;;;;;4.00;1.50;;;;;;;;5051836;28;45646;-75
2022/01/04 12:28:46;;;;;;;;;1.67;1.67;;;;;;;;5035785;28;45435;-76
2022/01/04 12:31:17;;;;;;;;;3.00;2.00;;;;;;;;5052649;28;45445;-76
2022/01/04 12:33:44;;;;;;;;;1.33;1.00;;;;;;;;5033737;28;45701;-74
2022/01/04 12:36:10;;;;;;;;;0.67;0.00;;;;;;;;5051944;28;46430;-73
2022/01/04 12:38:36;;;;;;;;;0.67;0.00;;;;;;;;5052377;28;46142;-73
2022/01/04 12:41:02;;;;;;;;;1.00;1.00;;;;;;;;5051618;28;46076;-72
2022/01/04 12:43:27;;;;;;;;;6.00;4.50;;;;;;;;5052666;28;45672;-72
2022/01/04 12:45:56;;;;;;;;;5.00;2.00;;;;;;;;5033433;28;47743;-72
2022/01/04 12:48:59;;;;;;;;;4.00;4.00;;;;;;;;5051869;28;46113;-73
2022/01/04 12:51:27;;;;;;;;;1.00;1.00;;;;;;;;5009131;28;46137;-75
2022/01/04 12:53:53;;;;;;;;;2.00;2.00;;;;;;;;5009635;28;45840;-70
2022/01/04 12:56:18;;;;;;;;;1.33;0.33;;;;;;;;5009576;28;46082;-74
2022/01/04 12:58:44;;;;;;;;;7.00;4.50;;;;;;;;5009702;28;45593;-74
2022/01/04 13:01:11;;;;;;;;;5.25;4.25;;;;;;;;5010172;28;45438;-72
2022/01/04 13:03:36;;;;;;;;;1.00;1.00;;;;;;;;5008764;28;45597;-76
2022/01/04 13:06:04;;;;;;;;;2.67;1.00;;;;;;;;5004987;28;47436;-74
2022/01/04 13:08:29;;;;;;;;;1.00;1.00;;;;;;;;4994428;28;45643;-74
2022/01/04 13:11:02;;;;;;;;;2.00;2.00;;;;;;;;5010375;28;45422;-76
2022/01/04 13:13:28;;;;;;;;;1.33;1.00;;;;;;;;4993122;28;45764;-77
2022/01/04 13:15:53;;;;;;;;;1.00;1.00;;;;;;;;5008267;28;45878;-76
2022/01/04 13:18:28;;;;;;;;;2.00;2.00;;;;;;;;5008977;28;45753;-75
2022/01/04 13:21:04;;;;;;;;;3.67;1.00;;;;;;;;5008405;28;45757;-74
2022/01/04 13:23:29;;;;;;;;;3.67;0.67;;;;;;;;5008716;28;45587;-76
2022/01/04 13:25:58;;;;;;;;;3.00;1.00;;;;;;;;5011588;28;45919;-74
2022/01/04 13:28:24;;;;;;;;;2.00;2.00;;;;;;;;5051991;28;45512;-76
2022/01/04 13:30:50;;;;;;;;;1.00;1.00;;;;;;;;5032942;28;45500;-75
2022/01/04 13:33:20;;;;;;;;;3.67;2.67;;;;;;;;5051120;28;45464;-76
2022/01/04 13:35:48;;;;;;;;;1.00;1.00;;;;;;;;5032527;28;47605;-75
2022/01/04 13:38:17;;;;;;;;;2.50;1.50;;;;;;;;5050950;28;45533;-76
2022/01/04 13:40:45;;;;;;;;;1.00;1.00;;;;;;;;5033153;28;45933;-76
2022/01/04 13:43:12;;;;;;;;;2.33;2.00;;;;;;;;5033102;28;45691;-75
2022/01/04 13:45:43;;;;;;;;;1.00;1.00;;;;;;;;5050559;28;46001;-76
2022/01/04 13:48:09;;;;;;;;;2.00;1.00;;;;;;;;5032442;28;46256;-76
2022/01/04 13:50:34;;;;;;;;;3.00;2.00;;;;;;;;5032627;28;45721;-76
2022/01/04 13:53:02;;;;;;;;;2.33;1.00;;;;;;;;5032724;28;45419;-77
2022/01/04 13:55:43;;;;;;;;;2.33;2.33;;;;;;;;5050898;28;45558;-76
2022/01/04 13:58:11;;;;;;;;;1.00;1.00;;;;;;;;5065921;28;46253;-74
2022/01/04 14:00:38;;;;;;;;;1.00;1.00;;;;;;;;5032403;28;45849;-77
2022/01/04 14:03:23;;;;;;;;;1.67;1.67;;;;;;;;5032521;28;45684;-76
2022/01/04 14:05:48;;;;;;;;;2.00;2.00;;;;;;;;5032289;28;48045;-75
2022/01/04 14:08:13;;;;;;;;;3.33;1.00;;;;;;;;5032671;28;45503;-76
2022/01/04 14:10:48;;;;;;;;;2.00;2.00;;;;;;;;5050764;28;45963;-76
2022/01/04 14:13:29;;;;;;;;;2.00;2.00;;;;;;;;5050963;28;45540;-76
2022/01/04 14:16:09;;;;;;;;;1.00;1.00;;;;;;;;5032205;28;47089;-73
2022/01/04 14:18:34;;;;;;;;;1.33;1.33;;;;;;;;5030883;28;45817;-77
2022/01/04 14:20:59;;;;;;;;;0.00;0.00;;;;;;;;5050407;28;45802;-77
2022/01/04 14:23:31;;;;;;;;;1.67;1.67;;;;;;;;5032401;28;45649;-75
2022/01/04 14:26:01;;;;;;;;;3.00;2.00;;;;;;;;5032605;28;46438;-76
2022/01/04 14:28:26;;;;;;;;;1.00;1.00;;;;;;;;5033013;28;46630;-77
2022/01/04 14:30:51;;;;;;;;;3.00;1.00;;;;;;;;5050941;28;46152;-75
2022/01/04 14:33:16;;;;;;;;;1.00;1.00;;;;;;;;5050527;28;45460;-76
2022/01/04 14:35:43;;;;;;;;;1.00;1.00;;;;;;;;5031817;28;47563;-76
2022/01/04 14:38:08;;;;;;;;;1.00;1.00;;;;;;;;5031506;28;45942;-75
2022/01/04 14:40:34;;;;;;;;;0.67;0.00;;;;;;;;5051145;28;45714;-78
2022/01/04 14:42:59;;;;;;;;;4.00;3.00;;;;;;;;5049987;28;45554;-75
2022/01/04 14:45:26;;;;;;;;;2.00;2.00;;;;;;;;5031637;28;47606;-75
2022/01/04 14:47:51;;;;;;;;;2.33;1.00;;;;;;;;5053344;28;45755;-77
2022/01/04 14:50:17;;;;;;;;;1.00;1.00;;;;;;;;5056823;28;45474;-74
2022/01/04 14:52:43;;;;;;;;;3.33;2.00;;;;;;;;5057208;28;45620;-75
2022/01/04 14:55:09;;;;;;;;;2.67;1.33;;;;;;;;5034509;28;47471;-76
2022/01/04 14:57:35;;;;;;;;;3.00;2.00;;;;;;;;5050459;28;45587;-75
2022/01/04 15:00:02;;;;;;;;;2.00;2.00;;;;;;;;5031005;28;45616;-73